createdAt,value
2018-07-24T00:00:21.224Z,977.82
2018-07-24T00:01:21.468Z,977.84
2018-07-24T00:02:21.710Z,977.82
2018-07-24T00:03:21.959Z,977.81
2018-07-24T00:04:22.202Z,977.84
2018-07-24T00:05:22.445Z,977.80
2018-07-24T00:06:22.689Z,977.83
2018-07-24T00:07:22.934Z,977.82
2018-07-24T00:08:23.176Z,977.85
2018-07-24T00:09:23.420Z,977.85
2018-07-24T00:10:23.664Z,977.86
2018-07-24T00:11:23.905Z,977.83
2018-07-24T00:12:24.148Z,977.85
2018-07-24T00:13:24.396Z,977.84
2018-07-24T00:14:24.637Z,977.81
2018-07-24T00:15:24.878Z,977.83
2018-07-24T00:16:25.119Z,977.81
2018-07-24T00:17:25.365Z,977.75
2018-07-24T00:18:25.606Z,977.79
2018-07-24T00:19:25.847Z,977.76
2018-07-24T00:20:26.087Z,977.73
2018-07-24T00:21:26.334Z,977.73
2018-07-24T00:22:26.572Z,977.73
2018-07-24T00:23:26.816Z,977.75
2018-07-24T00:24:27.059Z,977.76
2018-07-24T00:25:27.301Z,977.75
2018-07-24T00:26:27.543Z,977.72
2018-07-24T00:27:27.783Z,977.74
2018-07-24T00:28:28.025Z,977.76
2018-07-24T00:29:28.265Z,977.74
2018-07-24T00:30:28.508Z,977.75
2018-07-24T00:31:28.754Z,977.76
2018-07-24T00:32:28.993Z,977.75
2018-07-24T00:33:29.235Z,977.76
2018-07-24T00:34:29.475Z,977.75
2018-07-24T00:35:29.719Z,977.77
2018-07-24T00:36:29.959Z,977.77
2018-07-24T00:37:30.204Z,977.79
2018-07-24T00:38:30.446Z,977.74
2018-07-24T00:39:30.689Z,977.72
2018-07-24T00:40:30.933Z,977.74
2018-07-24T00:41:31.174Z,977.70
2018-07-24T00:42:31.417Z,977.71
2018-07-24T00:43:31.662Z,977.69
2018-07-24T00:44:31.902Z,977.66
2018-07-24T00:45:32.145Z,977.70
2018-07-24T00:46:32.388Z,977.70
2018-07-24T00:47:32.638Z,977.70
2018-07-24T00:48:32.871Z,977.71
2018-07-24T00:49:33.116Z,977.70
2018-07-24T00:50:33.359Z,977.66
2018-07-24T00:51:33.600Z,977.69
2018-07-24T00:52:33.843Z,977.69
2018-07-24T00:53:34.086Z,977.69
2018-07-24T00:54:34.328Z,977.67
2018-07-24T00:55:34.574Z,977.70
2018-07-24T00:56:34.813Z,977.65
2018-07-24T00:57:35.055Z,977.69
2018-07-24T00:58:35.293Z,977.66
2018-07-24T00:59:35.541Z,977.66
2018-07-24T01:00:35.782Z,977.63
2018-07-24T01:01:36.024Z,977.65
2018-07-24T01:02:36.267Z,977.60
2018-07-24T01:03:36.512Z,977.62
2018-07-24T01:04:36.757Z,977.60
2018-07-24T01:05:36.995Z,977.60
2018-07-24T01:06:37.239Z,977.59
2018-07-24T01:07:37.481Z,977.57
2018-07-24T01:08:37.753Z,977.58
2018-07-24T01:09:37.966Z,977.56
2018-07-24T01:10:38.209Z,977.57
2018-07-24T01:11:38.452Z,977.58
2018-07-24T01:12:38.696Z,977.58
2018-07-24T01:13:38.937Z,977.57
2018-07-24T01:14:39.181Z,977.54
2018-07-24T01:15:39.423Z,977.55
2018-07-24T01:16:39.667Z,977.58
2018-07-24T01:17:39.909Z,977.55
2018-07-24T01:18:40.150Z,977.54
2018-07-24T01:19:40.395Z,977.55
2018-07-24T01:20:40.637Z,977.53
2018-07-24T01:21:40.877Z,977.52
2018-07-24T01:22:41.118Z,977.57
2018-07-24T01:23:41.367Z,977.50
2018-07-24T01:24:41.607Z,977.51
2018-07-24T01:25:41.835Z,977.52
2018-07-24T01:26:42.070Z,977.53
2018-07-24T01:27:42.323Z,977.47
2018-07-24T01:28:42.565Z,977.49
2018-07-24T01:29:42.809Z,977.51
2018-07-24T01:30:43.051Z,977.52
2018-07-24T01:31:43.289Z,977.51
2018-07-24T01:32:43.536Z,977.50
2018-07-24T01:33:43.777Z,977.49
2018-07-24T01:34:44.021Z,977.49
2018-07-24T01:35:44.261Z,977.49
2018-07-24T01:36:44.504Z,977.45
2018-07-24T01:37:44.750Z,977.46
2018-07-24T01:38:44.991Z,977.45
2018-07-24T01:39:45.234Z,977.46
2018-07-24T01:40:45.478Z,977.46
2018-07-24T01:41:45.722Z,977.43
2018-07-24T01:42:45.964Z,977.48
2018-07-24T01:43:46.207Z,977.43
2018-07-24T01:44:46.449Z,977.44
2018-07-24T01:45:46.692Z,977.43
2018-07-24T01:46:46.933Z,977.43
2018-07-24T01:47:47.180Z,977.46
2018-07-24T01:48:47.422Z,977.42
2018-07-24T01:49:47.665Z,977.43
2018-07-24T01:50:47.907Z,977.43
2018-07-24T01:51:48.152Z,977.44
2018-07-24T01:52:48.396Z,977.41
2018-07-24T01:53:48.638Z,977.41
2018-07-24T01:54:48.879Z,977.45
2018-07-24T01:55:49.122Z,977.43
2018-07-24T01:56:49.365Z,977.39
2018-07-24T01:57:49.606Z,977.41
2018-07-24T01:58:49.850Z,977.40
2018-07-24T01:59:50.093Z,977.37
2018-07-24T02:00:50.336Z,977.38
2018-07-24T02:01:50.580Z,977.33
2018-07-24T02:02:50.821Z,977.33
2018-07-24T02:03:51.063Z,977.32
2018-07-24T02:04:51.304Z,977.34
2018-07-24T02:05:51.548Z,977.37
2018-07-24T02:06:51.791Z,977.33
2018-07-24T02:07:52.033Z,977.36
2018-07-24T02:08:52.276Z,977.33
2018-07-24T02:09:52.519Z,977.35
2018-07-24T02:10:52.763Z,977.34
2018-07-24T02:11:53.002Z,977.36
2018-07-24T02:12:53.243Z,977.35
2018-07-24T02:13:53.485Z,977.34
2018-07-24T02:14:53.727Z,977.35
2018-07-24T02:15:53.971Z,977.30
2018-07-24T02:16:54.211Z,977.33
2018-07-24T02:17:54.451Z,977.31
2018-07-24T02:18:54.693Z,977.31
2018-07-24T02:19:54.934Z,977.30
2018-07-24T02:20:55.175Z,977.34
2018-07-24T02:21:55.417Z,977.32
2018-07-24T02:22:55.659Z,977.34
2018-07-24T02:23:55.901Z,977.31
2018-07-24T02:24:56.144Z,977.30
2018-07-24T02:25:56.385Z,977.32
2018-07-24T02:26:56.626Z,977.30
2018-07-24T02:27:56.868Z,977.32
2018-07-24T02:28:57.107Z,977.32
2018-07-24T02:29:57.350Z,977.30
2018-07-24T02:30:57.591Z,977.30
2018-07-24T02:31:57.863Z,977.28
2018-07-24T02:32:58.076Z,977.30
2018-07-24T02:33:58.317Z,977.27
2018-07-24T02:34:58.558Z,977.26
2018-07-24T02:35:59.198Z,977.25
2018-07-24T02:39:54.842Z,977.21
2018-07-24T02:40:01.127Z,977.24
2018-07-24T02:41:00.344Z,977.25
2018-07-24T02:42:00.586Z,977.22
2018-07-24T02:43:00.827Z,977.19
2018-07-24T02:44:01.068Z,977.19
2018-07-24T02:45:01.309Z,977.17
2018-07-24T02:46:01.557Z,977.19
2018-07-24T02:47:01.796Z,977.19
2018-07-24T02:48:02.030Z,977.17
2018-07-24T02:49:02.272Z,977.18
2018-07-24T02:50:02.512Z,977.22
2018-07-24T02:51:02.763Z,977.18
2018-07-24T02:52:02.997Z,977.19
2018-07-24T02:53:03.237Z,977.19
2018-07-24T02:54:03.478Z,977.14
2018-07-24T02:55:03.718Z,977.17
2018-07-24T02:56:03.961Z,977.17
2018-07-24T02:57:04.202Z,977.18
2018-07-24T02:58:04.442Z,977.15
2018-07-24T02:59:04.684Z,977.15
2018-07-24T03:00:04.925Z,977.16
2018-07-24T03:01:05.171Z,977.15
2018-07-24T03:02:05.409Z,977.16
2018-07-24T03:03:05.650Z,977.17
2018-07-24T03:04:05.893Z,977.16
2018-07-24T03:05:06.135Z,977.16
2018-07-24T03:06:06.377Z,977.13
2018-07-24T03:07:06.619Z,977.15
2018-07-24T03:08:06.859Z,977.13
2018-07-24T03:09:07.103Z,977.13
2018-07-24T03:10:07.351Z,977.12
2018-07-24T03:11:07.588Z,977.12
2018-07-24T03:12:07.836Z,977.12
2018-07-24T03:13:08.076Z,977.13
2018-07-24T03:14:08.319Z,977.12
2018-07-24T03:15:08.565Z,977.12
2018-07-24T03:16:08.830Z,977.11
2018-07-24T03:17:09.047Z,977.13
2018-07-24T03:18:09.289Z,977.10
2018-07-24T03:19:09.532Z,977.12
2018-07-24T03:20:09.774Z,977.16
2018-07-24T03:21:10.023Z,977.12
2018-07-24T03:22:10.253Z,977.11
2018-07-24T03:23:10.497Z,977.12
2018-07-24T03:24:10.741Z,977.10
2018-07-24T03:25:10.983Z,977.12
2018-07-24T03:26:11.224Z,977.09
2018-07-24T03:27:11.466Z,977.08
2018-07-24T03:28:11.711Z,977.11
2018-07-24T03:29:11.951Z,977.11
2018-07-24T03:30:12.192Z,977.14
2018-07-24T03:31:12.435Z,977.12
2018-07-24T03:32:12.676Z,977.12
2018-07-24T03:33:12.920Z,977.12
2018-07-24T03:34:13.163Z,977.10
2018-07-24T03:35:13.403Z,977.08
2018-07-24T03:36:13.644Z,977.07
2018-07-24T03:37:13.888Z,977.10
2018-07-24T03:38:14.129Z,977.06
2018-07-24T03:39:14.374Z,977.12
2018-07-24T03:40:14.616Z,977.12
2018-07-24T03:41:14.856Z,977.14
2018-07-24T03:42:15.098Z,977.13
2018-07-24T03:43:15.340Z,977.14
2018-07-24T03:44:15.581Z,977.13
2018-07-24T03:45:15.823Z,977.16
2018-07-24T03:46:16.068Z,977.15
2018-07-24T03:47:16.307Z,977.16
2018-07-24T03:48:16.555Z,977.17
2018-07-24T03:49:16.797Z,977.14
2018-07-24T03:50:17.039Z,977.12
2018-07-24T03:51:17.279Z,977.16
2018-07-24T03:52:17.521Z,977.15
2018-07-24T03:53:17.763Z,977.18
2018-07-24T03:54:18.005Z,977.18
2018-07-24T03:55:18.240Z,977.17
2018-07-24T03:56:18.487Z,977.20
2018-07-24T03:57:18.730Z,977.22
2018-07-24T03:58:18.971Z,977.21
2018-07-24T03:59:19.213Z,977.23
2018-07-24T04:00:19.456Z,977.25
2018-07-24T04:01:19.697Z,977.24
2018-07-24T04:02:19.961Z,977.22
2018-07-24T04:03:20.181Z,977.21
2018-07-24T04:04:20.428Z,977.21
2018-07-24T04:05:20.671Z,977.26
2018-07-24T04:06:20.913Z,977.26
2018-07-24T04:07:21.153Z,977.24
2018-07-24T04:08:21.395Z,977.32
2018-07-24T04:09:21.636Z,977.28
2018-07-24T04:10:21.879Z,977.34
2018-07-24T04:11:22.119Z,977.35
2018-07-24T04:12:22.360Z,977.38
2018-07-24T04:13:22.600Z,977.35
2018-07-24T04:14:22.845Z,977.34
2018-07-24T04:15:23.085Z,977.32
2018-07-24T04:16:23.324Z,977.34
2018-07-24T04:17:23.569Z,977.30
2018-07-24T04:18:23.809Z,977.36
2018-07-24T04:19:24.049Z,977.35
2018-07-24T04:20:24.289Z,977.36
2018-07-24T04:21:24.532Z,977.38
2018-07-24T04:22:24.775Z,977.36
2018-07-24T04:23:25.018Z,977.36
2018-07-24T04:24:25.258Z,977.34
2018-07-24T04:25:25.504Z,977.33
2018-07-24T04:26:25.746Z,977.34
2018-07-24T04:27:25.988Z,977.33
2018-07-24T04:28:26.232Z,977.33
2018-07-24T04:29:26.472Z,977.38
2018-07-24T04:30:26.713Z,977.36
2018-07-24T04:31:26.953Z,977.37
2018-07-24T04:32:27.195Z,977.36
2018-07-24T04:33:27.436Z,977.35
2018-07-24T04:34:27.676Z,977.33
2018-07-24T04:35:27.923Z,977.35
2018-07-24T04:36:28.159Z,977.31
2018-07-24T04:37:28.403Z,977.32
2018-07-24T04:38:28.647Z,977.33
2018-07-24T04:39:28.890Z,977.30
2018-07-24T04:40:29.131Z,977.31
2018-07-24T04:41:29.373Z,977.30
2018-07-24T04:42:29.616Z,977.34
2018-07-24T04:43:29.857Z,977.32
2018-07-24T04:44:30.099Z,977.36
2018-07-24T04:45:30.340Z,977.36
2018-07-24T04:46:30.584Z,977.37
2018-07-24T04:47:30.830Z,977.40
2018-07-24T04:48:31.093Z,977.36
2018-07-24T04:49:31.306Z,977.38
2018-07-24T04:50:31.553Z,977.38
2018-07-24T04:51:31.799Z,977.37
2018-07-24T04:52:32.037Z,977.43
2018-07-24T04:53:32.280Z,977.45
2018-07-24T04:54:32.523Z,977.44
2018-07-24T04:55:32.767Z,977.46
2018-07-24T04:56:33.009Z,977.45
2018-07-24T04:57:33.252Z,977.47
2018-07-24T04:58:33.497Z,977.49
2018-07-24T04:59:33.741Z,977.48
2018-07-24T05:00:33.982Z,977.48
2018-07-24T05:01:34.225Z,977.48
2018-07-24T05:02:34.528Z,977.52
2018-07-24T05:03:34.710Z,977.49
2018-07-24T05:04:34.954Z,977.51
2018-07-24T05:05:35.196Z,977.49
2018-07-24T05:06:35.439Z,977.52
2018-07-24T05:07:35.683Z,977.53
2018-07-24T05:08:35.926Z,977.54
2018-07-24T05:09:36.213Z,977.54
2018-07-24T05:10:36.499Z,977.55
2018-07-24T05:11:36.670Z,977.54
2018-07-24T05:12:36.915Z,977.56
2018-07-24T05:13:37.160Z,977.59
2018-07-24T05:14:37.405Z,977.57
2018-07-24T05:15:37.646Z,977.60
2018-07-24T05:16:37.945Z,977.56
2018-07-24T05:17:38.132Z,977.63
2018-07-24T05:18:38.378Z,977.60
2018-07-24T05:19:38.619Z,977.61
2018-07-24T05:20:38.864Z,977.58
2018-07-24T05:21:39.108Z,977.62
2018-07-24T05:22:39.352Z,977.60
2018-07-24T05:23:39.658Z,977.61
2018-07-24T05:24:39.846Z,977.60
2018-07-24T05:25:40.084Z,977.61
2018-07-24T05:26:40.353Z,977.64
2018-07-24T05:27:40.575Z,977.64
2018-07-24T05:28:40.818Z,977.66
2018-07-24T05:29:41.064Z,977.72
2018-07-24T05:30:41.310Z,977.71
2018-07-24T05:31:41.711Z,977.71
2018-07-24T05:32:41.955Z,977.68
2018-07-24T05:33:42.241Z,977.69
2018-07-24T05:34:42.486Z,977.67
2018-07-24T05:35:42.739Z,977.68
2018-07-24T05:36:42.986Z,977.67
2018-07-24T05:37:43.229Z,977.66
2018-07-24T05:38:43.527Z,977.64
2018-07-24T05:39:43.717Z,977.63
2018-07-24T05:40:43.960Z,977.61
2018-07-24T05:41:44.203Z,977.65
2018-07-24T05:42:44.446Z,977.64
2018-07-24T05:43:44.689Z,977.65
2018-07-24T05:44:44.934Z,977.64
2018-07-24T05:45:45.178Z,977.63
2018-07-24T05:46:45.424Z,977.63
2018-07-24T05:47:45.668Z,977.62
2018-07-24T05:48:45.927Z,977.66
2018-07-24T05:49:46.158Z,977.64
2018-07-24T05:50:46.402Z,977.63
2018-07-24T05:51:46.647Z,977.64
2018-07-24T05:52:46.894Z,977.65
2018-07-24T05:53:47.135Z,977.65
2018-07-24T05:54:47.380Z,977.67
2018-07-24T05:55:47.634Z,977.65
2018-07-24T05:56:47.868Z,977.68
2018-07-24T05:57:48.112Z,977.67
2018-07-24T05:58:48.358Z,977.67
2018-07-24T05:59:48.605Z,977.68
2018-07-24T06:00:48.849Z,977.65
2018-07-24T06:01:49.100Z,977.69
2018-07-24T06:02:49.339Z,977.67
2018-07-24T06:03:49.584Z,977.69
2018-07-24T06:04:49.829Z,977.67
2018-07-24T06:05:50.074Z,977.70
2018-07-24T06:06:50.321Z,977.70
2018-07-24T06:07:50.564Z,977.68
2018-07-24T06:08:50.812Z,977.68
2018-07-24T06:09:51.054Z,977.66
2018-07-24T06:10:51.298Z,977.65
2018-07-24T06:11:51.543Z,977.62
2018-07-24T06:12:51.790Z,977.63
2018-07-24T06:13:52.036Z,977.62
2018-07-24T06:14:52.281Z,977.62
2018-07-24T06:15:52.527Z,977.63
2018-07-24T06:16:52.779Z,977.62
2018-07-24T06:17:53.021Z,977.63
2018-07-24T06:18:53.265Z,977.63
2018-07-24T06:19:53.517Z,977.62
2018-07-24T06:20:53.766Z,977.67
2018-07-24T06:21:54.046Z,977.66
2018-07-24T06:22:54.263Z,977.69
2018-07-24T06:23:54.509Z,977.63
2018-07-24T06:24:54.755Z,977.67
2018-07-24T06:25:55.002Z,977.62
2018-07-24T06:26:55.248Z,977.63
2018-07-24T06:27:55.553Z,977.65
2018-07-24T06:28:55.801Z,977.66
2018-07-24T06:29:56.049Z,977.63
2018-07-24T06:30:56.294Z,977.65
2018-07-24T06:31:56.539Z,977.62
2018-07-24T06:32:56.784Z,977.69
2018-07-24T06:33:57.030Z,977.64
2018-07-24T06:34:57.309Z,977.67
2018-07-24T06:35:57.520Z,977.65
2018-07-24T06:36:57.764Z,977.68
2018-07-24T06:37:58.011Z,977.65
2018-07-24T06:38:58.255Z,977.65
2018-07-24T06:39:58.501Z,977.65
2018-07-24T06:40:58.748Z,977.66
2018-07-24T06:41:58.995Z,977.61
2018-07-24T06:42:59.240Z,977.62
2018-07-24T06:43:59.488Z,977.64
2018-07-24T06:44:59.736Z,977.62
2018-07-24T06:46:00.098Z,977.57
2018-07-24T06:47:00.364Z,977.58
2018-07-24T06:48:00.611Z,977.60
2018-07-24T06:49:00.858Z,977.58
2018-07-24T06:50:01.106Z,977.60
2018-07-24T06:51:01.368Z,977.55
2018-07-24T06:52:01.737Z,977.58
2018-07-24T06:53:01.848Z,977.58
2018-07-24T06:54:02.097Z,977.55
2018-07-24T06:55:02.344Z,977.56
2018-07-24T06:56:02.647Z,977.50
2018-07-24T06:57:02.844Z,977.53
2018-07-24T06:58:03.091Z,977.54
2018-07-24T06:59:03.340Z,977.49
2018-07-24T07:00:03.593Z,977.47
2018-07-24T07:01:03.840Z,977.49
2018-07-24T07:02:04.137Z,977.50
2018-07-24T07:03:04.338Z,977.50
2018-07-24T07:04:04.591Z,977.48
2018-07-24T07:05:04.858Z,977.50
2018-07-24T07:06:05.087Z,977.55
2018-07-24T07:07:05.330Z,977.52
2018-07-24T07:08:05.577Z,977.53
2018-07-24T07:09:05.822Z,977.53
2018-07-24T07:10:06.073Z,977.52
2018-07-24T07:11:06.319Z,977.51
2018-07-24T07:12:06.564Z,977.49
2018-07-24T07:13:06.861Z,977.51
2018-07-24T07:14:07.065Z,977.54
2018-07-24T07:15:07.307Z,977.51
2018-07-24T07:16:07.564Z,977.52
2018-07-24T07:17:07.802Z,977.53
2018-07-24T07:18:08.049Z,977.56
2018-07-24T07:19:08.295Z,977.55
2018-07-24T07:20:08.543Z,977.53
2018-07-24T07:21:08.793Z,977.56
2018-07-24T07:22:09.039Z,977.56
2018-07-24T07:23:09.289Z,977.56
2018-07-24T07:24:09.534Z,977.61
2018-07-24T07:25:09.783Z,977.61
2018-07-24T07:26:10.096Z,977.62
2018-07-24T07:27:10.281Z,977.62
2018-07-24T07:28:10.532Z,977.59
2018-07-24T07:29:10.792Z,977.59
2018-07-24T07:30:11.028Z,977.61
2018-07-24T07:31:11.277Z,977.57
2018-07-24T07:32:11.561Z,977.53
2018-07-24T07:33:11.777Z,977.56
2018-07-24T07:34:12.028Z,977.57
2018-07-24T07:35:12.280Z,977.57
2018-07-24T07:36:12.530Z,977.61
2018-07-24T07:37:12.781Z,977.63
2018-07-24T07:38:13.031Z,977.59
2018-07-24T07:39:13.319Z,977.61
2018-07-24T07:40:13.533Z,977.62
2018-07-24T07:41:13.783Z,977.65
2018-07-24T07:42:14.035Z,977.67
2018-07-24T07:43:14.288Z,977.62
2018-07-24T07:44:14.544Z,977.62
2018-07-24T07:45:14.804Z,977.64
2018-07-24T07:46:15.044Z,977.67
2018-07-24T07:47:15.295Z,977.66
2018-07-24T07:48:15.549Z,977.67
2018-07-24T07:49:15.801Z,977.64
2018-07-24T07:50:16.055Z,977.64
2018-07-24T07:51:16.309Z,977.66
2018-07-24T07:52:16.562Z,977.64
2018-07-24T07:53:16.814Z,977.62
2018-07-24T07:54:17.066Z,977.63
2018-07-24T07:55:17.326Z,977.59
2018-07-24T07:56:17.576Z,977.61
2018-07-24T07:57:17.830Z,977.62
2018-07-24T07:58:18.082Z,977.61
2018-07-24T07:59:18.337Z,977.63
2018-07-24T08:00:18.594Z,977.59
2018-07-24T08:01:18.845Z,977.59
2018-07-24T08:02:19.099Z,977.56
2018-07-24T08:03:19.354Z,977.59
2018-07-24T08:04:19.649Z,977.59
2018-07-24T08:05:19.861Z,977.58
2018-07-24T08:06:20.116Z,977.59
2018-07-24T08:07:20.369Z,977.60
2018-07-24T08:08:20.622Z,977.58
2018-07-24T08:09:20.875Z,977.59
2018-07-24T08:10:21.129Z,977.64
2018-07-24T08:11:21.383Z,977.62
2018-07-24T08:12:21.671Z,977.60
2018-07-24T08:13:21.889Z,977.58
2018-07-24T08:14:22.142Z,977.62
2018-07-24T08:15:22.396Z,977.64
2018-07-24T08:16:22.659Z,977.64
2018-07-24T08:17:22.913Z,977.57
2018-07-24T08:18:23.172Z,977.60
2018-07-24T08:19:23.422Z,977.61
2018-07-24T08:20:23.678Z,977.60
2018-07-24T08:21:23.931Z,977.57
2018-07-24T08:22:24.212Z,977.57
2018-07-24T08:23:24.438Z,977.57
2018-07-24T08:24:24.693Z,977.60
2018-07-24T08:25:24.946Z,977.58
2018-07-24T08:26:25.196Z,977.61
2018-07-24T08:27:25.447Z,977.58
2018-07-24T08:28:25.699Z,977.65
2018-07-24T08:29:25.952Z,977.62
2018-07-24T08:30:26.207Z,977.62
2018-07-24T08:31:26.458Z,977.63
2018-07-24T08:32:26.706Z,977.57
2018-07-24T08:33:27.000Z,977.62
2018-07-24T08:34:27.211Z,977.57
2018-07-24T08:35:27.465Z,977.62
2018-07-24T08:36:27.716Z,977.61
2018-07-24T08:37:27.965Z,977.63
2018-07-24T08:38:28.218Z,977.58
2018-07-24T08:39:28.472Z,977.59
2018-07-24T08:40:28.724Z,977.58
2018-07-24T08:41:28.976Z,977.58
2018-07-24T08:42:29.229Z,977.56
2018-07-24T08:43:29.486Z,977.58
2018-07-24T08:44:29.738Z,977.54
2018-07-24T08:45:29.993Z,977.55
2018-07-24T08:46:30.246Z,977.56
2018-07-24T08:47:30.500Z,977.52
2018-07-24T08:48:30.753Z,977.55
2018-07-24T08:49:31.006Z,977.55
2018-07-24T08:50:31.259Z,977.55
2018-07-24T08:51:31.513Z,977.53
2018-07-24T08:52:31.869Z,977.54
2018-07-24T08:53:32.285Z,977.56
2018-07-24T08:54:32.426Z,977.56
2018-07-24T08:55:32.921Z,977.52
2018-07-24T08:56:32.785Z,977.50
2018-07-24T08:57:33.035Z,977.55
2018-07-24T08:58:33.289Z,977.52
2018-07-24T08:59:33.542Z,977.56
2018-07-24T09:00:33.805Z,977.52
2018-07-24T09:01:34.051Z,977.51
2018-07-24T09:02:34.307Z,977.57
2018-07-24T09:03:34.652Z,977.54
2018-07-24T09:04:34.815Z,977.56
2018-07-24T09:05:35.070Z,977.56
2018-07-24T09:06:35.325Z,977.61
2018-07-24T09:07:35.580Z,977.58
2018-07-24T09:08:35.833Z,977.62
2018-07-24T09:09:36.088Z,977.60
2018-07-24T09:10:36.346Z,977.64
2018-07-24T09:11:36.602Z,977.66
2018-07-24T09:12:36.858Z,977.65
2018-07-24T09:13:37.113Z,977.65
2018-07-24T09:14:37.371Z,977.61
2018-07-24T09:15:37.715Z,977.60
2018-07-24T09:16:37.869Z,977.58
2018-07-24T09:17:38.126Z,977.58
2018-07-24T09:18:38.383Z,977.57
2018-07-24T09:19:38.641Z,977.59
2018-07-24T09:20:38.917Z,977.61
2018-07-24T09:21:39.174Z,977.62
2018-07-24T09:22:39.432Z,977.52
2018-07-24T09:23:39.688Z,977.53
2018-07-24T09:24:39.944Z,977.49
2018-07-24T09:25:40.217Z,977.50
2018-07-24T09:26:40.489Z,977.56
2018-07-24T09:27:40.746Z,977.55
2018-07-24T09:28:41.004Z,977.57
2018-07-24T09:29:41.263Z,977.52
2018-07-24T09:30:41.519Z,977.53
2018-07-24T09:31:41.777Z,977.52
2018-07-24T09:32:42.035Z,977.56
2018-07-24T09:33:42.293Z,977.58
2018-07-24T09:34:42.552Z,977.61
2018-07-24T09:35:42.810Z,977.60
2018-07-24T09:36:43.070Z,977.55
2018-07-24T09:37:43.325Z,977.54
2018-07-24T09:38:43.583Z,977.54
2018-07-24T09:39:43.843Z,977.54
2018-07-24T09:40:44.102Z,977.54
2018-07-24T09:41:44.360Z,977.54
2018-07-24T09:42:44.619Z,977.56
2018-07-24T09:43:44.877Z,977.51
2018-07-24T09:44:45.134Z,977.58
2018-07-24T09:45:45.450Z,977.57
2018-07-24T09:46:45.653Z,977.61
2018-07-24T09:47:45.914Z,977.60
2018-07-24T09:48:46.173Z,977.58
2018-07-24T09:49:46.431Z,977.57
2018-07-24T09:50:46.691Z,977.58
2018-07-24T09:51:46.950Z,977.55
2018-07-24T09:52:47.213Z,977.56
2018-07-24T09:53:47.473Z,977.55
2018-07-24T09:54:47.729Z,977.53
2018-07-24T09:55:47.987Z,977.53
2018-07-24T09:56:48.245Z,977.57
2018-07-24T09:57:48.506Z,977.51
2018-07-24T09:58:48.766Z,977.56
2018-07-24T09:59:49.025Z,977.58
2018-07-24T10:00:49.284Z,977.56
2018-07-24T10:01:49.543Z,977.54
2018-07-24T10:02:49.803Z,977.54
2018-07-24T10:03:50.060Z,977.52
2018-07-24T10:04:50.319Z,977.53
2018-07-24T10:05:50.579Z,977.51
2018-07-24T10:06:50.841Z,977.56
2018-07-24T10:07:51.098Z,977.55
2018-07-24T10:08:51.359Z,977.58
2018-07-24T10:09:51.620Z,977.61
2018-07-24T10:10:51.896Z,977.63
2018-07-24T10:11:52.139Z,977.61
2018-07-24T10:12:52.428Z,977.71
2018-07-24T10:13:52.659Z,978.08
2018-07-24T10:14:52.915Z,978.52
2018-07-24T10:15:53.176Z,978.62
2018-07-24T10:16:53.472Z,978.60
2018-07-24T10:17:53.701Z,978.63
2018-07-24T10:18:53.980Z,978.61
2018-07-24T10:19:54.221Z,978.67
2018-07-24T10:20:54.482Z,978.72
2018-07-24T10:21:54.742Z,978.76
2018-07-24T10:22:55.006Z,978.80
2018-07-24T10:23:55.264Z,978.85
2018-07-24T10:24:55.524Z,978.85
2018-07-24T10:25:55.787Z,978.88
2018-07-24T10:26:56.051Z,978.87
2018-07-24T10:27:56.310Z,979.03
2018-07-24T10:28:56.570Z,979.06
2018-07-24T10:29:56.836Z,979.11
2018-07-24T10:30:57.097Z,979.16
2018-07-24T10:31:57.356Z,979.26
2018-07-24T10:32:57.619Z,979.37
2018-07-24T10:33:57.881Z,979.39
2018-07-24T10:34:58.164Z,979.48
2018-07-24T10:35:58.432Z,979.47
2018-07-24T10:36:58.700Z,979.42
2018-07-24T10:37:58.952Z,979.21
2018-07-24T10:38:59.213Z,979.10
2018-07-24T10:39:59.475Z,978.96
2018-07-24T10:40:59.738Z,978.96
2018-07-24T10:41:59.995Z,978.94
2018-07-24T10:43:00.318Z,979.03
2018-07-24T10:44:00.521Z,979.06
2018-07-24T10:45:00.785Z,979.06
2018-07-24T10:46:01.042Z,978.95
2018-07-24T10:47:01.304Z,978.95
2018-07-24T10:48:01.564Z,978.95
2018-07-24T10:49:01.825Z,978.93
2018-07-24T10:50:02.086Z,978.86
2018-07-24T10:51:02.345Z,978.87
2018-07-24T10:52:02.640Z,978.91
2018-07-24T10:53:02.868Z,978.89
2018-07-24T10:54:03.132Z,978.85
2018-07-24T10:55:03.390Z,978.77
2018-07-24T10:56:03.653Z,978.60
2018-07-24T10:57:03.914Z,978.41
2018-07-24T10:58:04.174Z,978.22
2018-07-24T10:59:04.435Z,978.12
2018-07-24T11:00:04.699Z,977.72
2018-07-24T11:01:04.960Z,977.37
2018-07-24T11:02:05.226Z,977.37
2018-07-24T11:03:05.486Z,977.49
2018-07-24T11:04:05.754Z,977.46
2018-07-24T11:05:06.011Z,977.29
2018-07-24T11:06:06.270Z,977.19
2018-07-24T11:07:06.537Z,977.15
2018-07-24T11:08:06.798Z,977.16
2018-07-24T11:09:07.060Z,977.13
2018-07-24T11:10:07.329Z,977.13
2018-07-24T11:11:07.580Z,977.09
2018-07-24T11:12:07.839Z,977.07
2018-07-24T11:13:08.099Z,977.08
2018-07-24T11:14:08.359Z,977.08
2018-07-24T11:15:08.617Z,977.12
2018-07-24T11:16:08.878Z,977.12
2018-07-24T11:17:09.139Z,977.13
2018-07-24T11:18:09.397Z,977.05
2018-07-24T11:19:09.657Z,977.09
2018-07-24T11:20:09.916Z,977.07
2018-07-24T11:21:10.176Z,977.06
2018-07-24T11:22:10.559Z,977.10
2018-07-24T11:23:10.816Z,977.13
2018-07-24T11:24:10.956Z,977.22
2018-07-24T11:25:11.218Z,977.30
2018-07-24T11:26:11.479Z,977.35
2018-07-24T11:27:11.741Z,977.42
2018-07-24T11:28:12.002Z,977.34
2018-07-24T11:29:12.260Z,977.37
2018-07-24T11:30:12.521Z,977.33
2018-07-24T11:31:12.787Z,977.24
2018-07-24T11:32:13.044Z,977.25
2018-07-24T11:33:13.329Z,977.17
2018-07-24T11:34:13.583Z,977.14
2018-07-24T11:35:13.822Z,977.12
2018-07-24T11:36:14.133Z,977.11
2018-07-24T11:37:14.341Z,977.07
2018-07-24T11:38:14.598Z,977.13
2018-07-24T11:39:14.857Z,977.25
2018-07-24T11:40:15.116Z,977.22
2018-07-24T11:41:15.372Z,977.04
2018-07-24T11:42:15.629Z,976.92
2018-07-24T11:43:15.886Z,976.89
2018-07-24T11:44:16.143Z,976.90
2018-07-24T11:45:16.400Z,976.84
2018-07-24T11:46:16.656Z,976.85
2018-07-24T11:47:16.915Z,976.83
2018-07-24T11:48:17.173Z,976.83
2018-07-24T11:49:17.429Z,976.87
2018-07-24T11:50:17.691Z,976.88
2018-07-24T11:51:17.951Z,976.85
2018-07-24T11:52:18.210Z,976.81
2018-07-24T11:53:18.465Z,976.84
2018-07-24T11:54:18.727Z,976.79
2018-07-24T11:55:18.997Z,976.83
2018-07-24T11:56:19.245Z,976.81
2018-07-24T11:57:19.502Z,976.77
2018-07-24T11:58:19.773Z,976.77
2018-07-24T11:59:20.016Z,976.73
2018-07-24T12:00:20.272Z,976.77
2018-07-24T12:01:20.531Z,976.70
2018-07-24T12:02:20.796Z,976.64
2018-07-24T12:03:21.052Z,976.64
2018-07-24T12:04:21.308Z,976.61
2018-07-24T12:05:21.567Z,976.64
2018-07-24T12:06:21.825Z,976.62
2018-07-24T12:07:22.082Z,976.61
2018-07-24T12:08:22.341Z,976.59
2018-07-24T12:09:22.601Z,976.56
2018-07-24T12:10:22.856Z,976.52
2018-07-24T12:11:23.115Z,976.49
2018-07-24T12:12:23.373Z,976.46
2018-07-24T12:13:23.629Z,976.45
2018-07-24T12:14:23.888Z,976.48
2018-07-24T12:15:24.145Z,976.48
2018-07-24T12:16:24.403Z,976.49
2018-07-24T12:17:24.660Z,976.53
2018-07-24T12:18:24.921Z,976.46
2018-07-24T12:19:25.235Z,976.46
2018-07-24T12:20:25.437Z,976.40
2018-07-24T12:21:25.696Z,976.40
2018-07-24T12:22:25.954Z,976.44
2018-07-24T12:23:26.212Z,976.45
2018-07-24T12:24:26.470Z,976.44
2018-07-24T12:25:26.730Z,976.37
2018-07-24T12:26:26.992Z,976.40
2018-07-24T12:27:27.246Z,976.38
2018-07-24T12:28:27.506Z,976.37
2018-07-24T12:29:27.765Z,976.34
2018-07-24T12:30:28.024Z,976.32
2018-07-24T12:31:28.285Z,976.31
2018-07-24T12:32:28.539Z,976.29
2018-07-24T12:33:28.798Z,976.28